createdAt,value
2022-08-18T00:00:03.951Z,14.07
2022-08-18T00:05:08.208Z,16.75
2022-08-18T00:10:18.216Z,12.77
2022-08-18T00:15:22.856Z,11.73
2022-08-18T00:20:26.709Z,12.27
2022-08-18T00:25:31.600Z,15.18
2022-08-18T00:30:35.318Z,14.07
2022-08-18T00:35:40.006Z,12.70
2022-08-18T00:40:48.539Z,13.05
2022-08-18T00:45:51.872Z,15.07
2022-08-18T00:50:58.512Z,14.40
2022-08-18T00:56:08.642Z,12.30
2022-08-18T01:01:16.553Z,14.45
2022-08-18T01:06:28.939Z,10.10
2022-08-18T01:11:34.418Z,14.30
2022-08-18T01:16:57.463Z,12.18
2022-08-18T01:22:18.637Z,12.60
2022-08-18T01:27:23.574Z,12.25
2022-08-18T01:32:27.809Z,12.85
2022-08-18T01:37:31.261Z,15.45
2022-08-18T01:42:36.980Z,11.40
2022-08-18T01:47:57.341Z,11.02
2022-08-18T01:53:00.688Z,10.98
2022-08-18T01:58:07.095Z,11.52
2022-08-18T02:03:14.587Z,9.45
2022-08-18T02:08:18.128Z,12.45
2022-08-18T02:13:22.939Z,12.20
2022-08-18T02:18:47.547Z,13.02
2022-08-18T02:23:53.353Z,9.65
2022-08-18T02:28:59.015Z,10.57
2022-08-18T02:34:02.751Z,13.23
2022-08-18T02:39:06.205Z,13.20
2022-08-18T02:44:11.105Z,12.77
2022-08-18T02:49:14.388Z,12.77
2022-08-18T02:54:17.879Z,15.40
2022-08-18T02:59:25.448Z,15.43
2022-08-18T03:04:31.373Z,23.00
2022-08-18T03:09:36.258Z,13.63
2022-08-18T03:14:41.179Z,12.10
2022-08-18T03:19:47.744Z,10.40
2022-08-18T03:24:51.375Z,10.25
2022-08-18T03:29:56.688Z,14.60
2022-08-18T03:35:02.389Z,12.70
2022-08-18T03:40:07.776Z,10.45
2022-08-18T03:45:17.548Z,16.98
2022-08-18T03:50:21.958Z,16.20
2022-08-18T03:55:25.312Z,13.00
2022-08-18T04:00:30.716Z,12.87
2022-08-18T04:05:35.105Z,16.17
2022-08-18T04:10:38.449Z,12.85
2022-08-18T04:15:43.113Z,14.77
2022-08-18T04:20:59.757Z,13.20
2022-08-18T04:26:03.953Z,13.15
2022-08-18T04:31:10.981Z,14.90
2022-08-18T04:36:18.779Z,19.15
2022-08-18T04:41:27.077Z,19.25
2022-08-18T04:46:36.188Z,17.40
2022-08-18T04:52:30.879Z,21.25
2022-08-18T04:57:11.276Z,17.83
2022-08-18T05:02:17.097Z,22.85
2022-08-18T05:07:22.825Z,20.45
2022-08-18T05:12:26.814Z,22.05
2022-08-18T05:17:32.261Z,21.27
2022-08-18T05:22:39.257Z,19.40
2022-08-18T05:27:44.378Z,26.42
2022-08-18T05:32:50.559Z,27.45
2022-08-18T05:38:12.139Z,30.02
2022-08-18T05:43:18.220Z,33.70
2022-08-18T05:48:23.011Z,36.17
2022-08-18T05:53:46.377Z,68.93
2022-08-18T05:58:55.534Z,63.70
2022-08-18T06:04:06.249Z,47.67
2022-08-18T06:09:14.955Z,81.75
2022-08-18T06:14:19.186Z,79.65
2022-08-18T06:19:40.369Z,87.63
2022-08-18T06:24:52.699Z,81.55
2022-08-18T06:30:08.734Z,91.10
2022-08-18T06:35:20.431Z,87.63
2022-08-18T06:40:23.882Z,83.57
2022-08-18T06:45:35.848Z,70.40
2022-08-18T06:50:50.282Z,72.82
2022-08-18T06:55:53.661Z,70.57
2022-08-18T07:01:00.297Z,74.55
2022-08-18T07:06:07.830Z,82.22
2022-08-18T07:11:20.296Z,83.03
2022-08-18T07:16:47.105Z,90.80
2022-08-18T07:22:04.179Z,83.32
2022-08-18T07:27:10.556Z,81.88
2022-08-18T07:32:20.822Z,84.60
2022-08-18T07:37:31.119Z,67.70
2022-08-18T07:43:00.840Z,60.13
2022-08-18T07:48:27.408Z,56.63
2022-08-18T07:53:54.315Z,49.95
2022-08-18T07:59:04.892Z,42.33
2022-08-18T08:04:25.454Z,46.28
2022-08-18T08:09:39.235Z,37.13
2022-08-18T08:14:44.481Z,38.53
2022-08-18T08:20:09.154Z,25.30
2022-08-18T08:25:42.636Z,21.80
2022-08-18T08:30:52.422Z,19.73
2022-08-18T08:36:03.833Z,20.40
2022-08-18T08:41:13.416Z,20.13
2022-08-18T08:46:21.188Z,16.48
2022-08-18T08:51:37.417Z,13.05
2022-08-18T08:56:47.828Z,9.68
2022-08-18T09:02:00.228Z,11.48
2022-08-18T09:12:46.648Z,9.40
2022-08-18T09:18:31.756Z,10.07
2022-08-18T09:23:42.458Z,10.02
2022-08-18T09:28:58.560Z,7.82
2022-08-18T09:34:23.240Z,8.55
2022-08-18T09:39:54.625Z,11.38
2022-08-18T09:45:04.291Z,10.35
2022-08-18T09:50:41.071Z,10.48
2022-08-18T09:56:04.833Z,8.73
2022-08-18T10:01:36.719Z,6.10
2022-08-18T10:06:42.975Z,8.60
2022-08-18T10:12:15.911Z,6.07
2022-08-18T10:17:44.775Z,9.77
2022-08-18T10:22:54.179Z,8.50
2022-08-18T10:27:58.249Z,7.15
2022-08-18T10:33:17.624Z,10.00
2022-08-18T10:43:55.503Z,7.15
2022-08-18T10:49:07.082Z,9.88
2022-08-18T10:54:20.009Z,15.85
2022-08-18T10:59:49.022Z,12.68
2022-08-18T11:04:59.206Z,9.18
2022-08-18T11:10:57.490Z,6.80
2022-08-18T11:15:53.639Z,8.75
2022-08-18T11:21:23.759Z,7.40
2022-08-18T11:26:31.431Z,8.23
2022-08-18T11:31:34.886Z,12.30
2022-08-18T11:36:49.929Z,7.15
2022-08-18T11:41:53.797Z,6.75
2022-08-18T11:47:08.960Z,7.95
2022-08-18T11:52:26.231Z,10.32
2022-08-18T11:57:53.192Z,10.55
2022-08-18T12:03:03.174Z,7.35
2022-08-18T12:08:50.534Z,6.45
2022-08-18T12:13:45.141Z,8.38
2022-08-18T12:18:49.441Z,10.85
2022-08-18T12:23:58.585Z,5.90
2022-08-18T12:29:02.268Z,7.18
2022-08-18T12:34:06.561Z,5.93
2022-08-18T12:39:18.762Z,4.80
2022-08-18T12:44:24.339Z,8.88
2022-08-18T12:49:31.645Z,4.78
2022-08-18T12:54:38.979Z,8.90
2022-08-18T12:59:58.888Z,4.32
2022-08-18T13:05:03.058Z,6.50
2022-08-18T13:10:35.778Z,7.70
2022-08-18T13:15:36.900Z,6.50
2022-08-18T13:20:40.381Z,7.13
2022-08-18T13:25:49.921Z,9.48
2022-08-18T13:30:54.147Z,8.30
2022-08-18T13:35:58.883Z,4.70
2022-08-18T13:41:06.353Z,10.45
2022-08-18T13:46:12.344Z,6.95
2022-08-18T13:51:22.298Z,6.50
2022-08-18T13:56:31.337Z,6.13
2022-08-18T14:01:44.297Z,7.22
2022-08-18T14:06:58.835Z,6.60
2022-08-18T14:12:15.852Z,8.68
2022-08-18T14:17:27.382Z,9.23
2022-08-18T14:22:48.482Z,4.90
2022-08-18T14:27:56.726Z,7.32
2022-08-18T14:33:01.001Z,4.72
2022-08-18T14:38:07.316Z,4.30
2022-08-18T14:43:16.353Z,8.43
2022-08-18T14:48:22.451Z,5.85
2022-08-18T14:53:29.743Z,8.15
2022-08-18T14:58:37.634Z,6.00
2022-08-18T15:03:42.570Z,5.95
2022-08-18T15:08:47.021Z,7.95
2022-08-18T15:13:55.529Z,7.18
2022-08-18T15:18:59.099Z,8.43
2022-08-18T15:24:20.659Z,6.30
2022-08-18T15:29:29.180Z,7.65
2022-08-18T15:34:33.063Z,8.10
2022-08-18T15:39:51.915Z,9.40
2022-08-18T15:45:12.009Z,7.03
2022-08-18T15:50:26.052Z,13.43
2022-08-18T15:55:35.731Z,7.95
2022-08-18T16:00:45.391Z,9.45
2022-08-18T16:05:52.909Z,13.35
2022-08-18T16:10:56.978Z,9.13
2022-08-18T16:16:01.836Z,12.90
2022-08-18T16:21:11.312Z,9.52
2022-08-18T16:31:28.521Z,9.82
2022-08-18T16:36:32.243Z,9.70
2022-08-18T16:41:35.905Z,15.40
2022-08-18T16:46:40.834Z,9.57
2022-08-18T16:51:44.860Z,11.45
2022-08-18T16:56:48.275Z,9.93
2022-08-18T17:02:10.213Z,11.27
2022-08-18T17:07:14.084Z,11.27
2022-08-18T17:12:17.726Z,15.18
2022-08-18T17:17:22.715Z,8.95
2022-08-18T17:22:26.290Z,14.63
2022-08-18T17:27:37.868Z,15.73
2022-08-18T17:32:47.861Z,13.32
2022-08-18T17:37:59.348Z,12.00
2022-08-18T17:43:03.226Z,9.68
2022-08-18T17:48:15.649Z,10.15
2022-08-18T17:53:19.095Z,6.80
2022-08-18T17:58:29.595Z,11.57
2022-08-18T18:03:34.611Z,7.35
2022-08-18T18:08:51.953Z,9.88
2022-08-18T18:13:55.997Z,9.32
2022-08-18T18:19:04.345Z,7.28
2022-08-18T18:24:16.354Z,6.35
2022-08-18T18:29:29.358Z,8.70
2022-08-18T18:34:39.753Z,8.07
2022-08-18T18:39:58.405Z,7.43
2022-08-18T18:45:03.719Z,6.82
2022-08-18T18:50:17.421Z,8.75
2022-08-18T18:55:27.003Z,8.40
2022-08-18T19:00:38.298Z,10.32
2022-08-18T19:05:48.579Z,6.88
2022-08-18T19:10:58.902Z,7.40
2022-08-18T19:16:23.338Z,8.63
2022-08-18T19:22:03.431Z,10.45
2022-08-18T19:26:58.016Z,10.95
2022-08-18T19:32:07.160Z,12.65
2022-08-18T19:37:27.242Z,7.95
2022-08-18T19:42:40.073Z,15.85
2022-08-18T19:47:51.013Z,15.57
2022-08-18T19:53:14.616Z,18.05
2022-08-18T19:59:12.987Z,16.50
2022-08-18T20:04:26.269Z,12.57
2022-08-18T20:09:50.217Z,11.27
2022-08-18T20:15:02.409Z,11.55
2022-08-18T20:20:13.997Z,22.23
2022-08-18T20:25:41.580Z,12.75
2022-08-18T20:30:58.531Z,11.13
2022-08-18T20:36:29.998Z,9.63
2022-08-18T20:41:47.288Z,14.60
2022-08-18T20:47:05.367Z,16.63
2022-08-18T20:52:19.611Z,10.95
2022-08-18T20:57:38.094Z,12.50
2022-08-18T21:02:47.362Z,15.02
2022-08-18T21:08:03.576Z,11.88
2022-08-18T21:13:08.382Z,18.02
2022-08-18T21:18:23.123Z,18.55
2022-08-18T21:23:30.825Z,12.93
2022-08-18T21:28:39.391Z,16.63
2022-08-18T21:33:50.855Z,13.82
2022-08-18T21:39:03.395Z,14.68
2022-08-18T21:44:18.122Z,12.75
2022-08-18T21:49:27.161Z,13.48
2022-08-18T21:54:34.365Z,11.43
2022-08-18T22:00:12.743Z,13.77
2022-08-18T22:05:28.385Z,12.60
2022-08-18T22:10:50.930Z,14.05
2022-08-18T22:15:56.117Z,15.00
2022-08-18T22:21:00.970Z,12.80
2022-08-18T22:26:12.484Z,12.25
2022-08-18T22:31:21.029Z,21.50
2022-08-18T22:36:28.450Z,13.45
2022-08-18T22:41:32.318Z,12.13
2022-08-18T22:46:37.714Z,13.35
2022-08-18T22:51:41.287Z,12.98
2022-08-18T22:56:53.827Z,19.55
2022-08-18T23:02:01.510Z,14.82
2022-08-18T23:07:05.000Z,15.85
2022-08-18T23:12:13.769Z,17.07
2022-08-18T23:17:18.985Z,13.63
2022-08-18T23:22:22.543Z,17.08
2022-08-18T23:27:25.963Z,14.00
2022-08-18T23:32:32.188Z,13.73
2022-08-18T23:37:35.757Z,15.35
2022-08-18T23:42:39.188Z,13.07
2022-08-18T23:47:44.008Z,13.50
2022-08-18T23:52:47.922Z,13.20
2022-08-18T23:57:53.022Z,16.13
